EW5518 Weather Reports


Display with metric or nautical units.
time (UTC)temp
F
wind
direction
speed
MPH
gust
MPH
rain 1hr
in
rain 24hr
in
rain mn
in
humidity
%
barometer
mb
20201028021614 70 169 6.0 14.0 0.00 0.00 0.00 27 1010.7
20201028020153 70 119 7.0 10.0 0.00 0.00 0.00 27 1010.7
20201028014552 70 171 6.0 14.0 0.00 0.00 0.00 27 1010.8
20201028013056 69 165 3.0 6.0 0.00 0.00 0.00 27 1010.8
20201028011538 69 191 4.0 9.0 0.00 0.00 0.00 27 1010.8
20201028010206 69 185 5.0 7.0 0.00 0.00 0.00 27 1010.8
20201028004542 70 144 4.0 11.0 0.00 0.00 0.00 26 1010.8
20201028003045 71 150 5.0 9.0 0.00 0.00 0.00 24 1011.0
20201028001628 71 155 6.0 15.0 0.00 0.00 0.00 25 1011.1
20201028000159 71 172 5.0 12.0 0.00 0.00 0.00 23 1011.1
20201027234544 71 162 5.0 9.0 0.00 0.00 0.00 22 1011.2
20201027233129 71 138 4.0 11.0 0.00 0.00 0.00 24 1011.2
20201027231540 71 187 5.0 11.0 0.00 0.00 0.00 23 1011.3
20201027230052 70 168 4.0 7.0 0.00 0.00 0.00 24 1011.2
20201027224542 71 184 3.0 7.0 0.00 0.00 0.00 23 1011.2
20201027223037 70 113 5.0 9.0 0.00 0.00 0.00 25 1011.2
20201027221623 66 130 3.0 8.0 0.00 0.00 0.00 28 1011.1
20201027220042 63 126 2.0 4.0 0.00 0.00 0.00 46 1011.2
20201027214525 66 92 2.0 6.0 0.00 0.00 0.00 52 1011.2
20201027213031 70 159 1.0 5.0 0.00 0.00 0.00 24 1011.2
20201027211523 70 175 1.0 7.0 0.00 0.00 0.00 23 1011.2
20201027210025 71 172 3.0 8.0 0.00 0.00 0.00 22 1011.2
20201027204604 72 130 4.0 8.0 0.00 0.00 0.00 21 1011.3
20201027203050 72 76 6.0 13.0 0.00 0.00 0.00 22 1011.2
20201027201526 73 119 3.0 8.0 0.00 0.00 0.00 21 1011.4
20201027200029 73 133 11.0 19.0 0.00 0.00 0.00 20 1011.3
20201027194526 72 112 5.0 13.0 0.00 0.00 0.00 19 1011.5
20201027193026 72 158 5.0 16.0 0.00 0.00 0.00 19 1011.6
20201027191551 72 104 7.0 19.0 0.00 0.00 0.00 19 1011.6
20201027190032 72 110 3.0 15.0 0.00 0.00 0.00 19 1011.7
20201027184517 72 117 7.0 15.0 0.00 0.00 0.00 19 1011.7
20201027183031 71 98 6.0 13.0 0.00 0.00 0.00 19 1011.6
20201027181521 72 76 7.0 14.0 0.00 0.00 0.00 19 1011.5
20201027180034 72 94 9.0 16.0 0.00 0.00 0.00 19 1011.4
20201027174526 72 107 10.0 18.0 0.00 0.00 0.00 18 1011.4
20201027173025 72 103 9.0 15.0 0.00 0.00 0.00 18 1011.3
20201027171537 72 111 9.0 16.0 0.00 0.00 0.00 19 1011.3
20201027170028 72 74 8.0 17.0 0.00 0.00 0.00 19 1011.4
20201027164514 72 122 5.0 14.0 0.00 0.00 0.00 20 1011.2
20201027163025 72 110 8.0 16.0 0.00 0.00 0.00 19 1011.2
20201027161512 72 108 8.0 19.0 0.00 0.00 0.00 19 1011.1
20201027160021 72 95 7.0 16.0 0.00 0.00 0.00 18 1010.8
20201027154641 72 141 12.0 20.0 0.00 0.00 0.00 18 1010.7
20201027153153 72 130 11.0 17.0 0.00 0.00 0.00 18 1010.7
20201027151708 72 119 11.0 15.0 0.00 0.00 0.00 18 1010.7
20201027150235 73 121 7.0 16.0 0.00 0.00 0.00 18 1010.7
20201027144637 72 123 7.0 13.0 0.00 0.00 0.00 19 1010.9
20201027143324 73 119 1.0 13.0 0.00 0.00 0.00 19 1010.7
20201027141719 74 92 4.0 11.0 0.00 0.00 0.00 18 1010.7
20201027140157 74 109 14.0 20.0 0.00 0.00 0.00 18 1010.5
20201027134629 73 159 10.0 20.0 0.00 0.00 0.00 20 1010.3
20201027133213 70 111 2.0 4.0 0.00 0.00 0.00 68 1010.2
20201027131613 69 341 0.0 0.0 0.00 0.00 0.00 70 1010.5
20201027130200 69 313 3.0 7.0 0.00 0.00 0.00 70 1010.4
20201027124619 69 302 2.0 4.0 0.00 0.00 0.00 68 1010.5
20201027123245 69 337 2.0 10.0 0.00 0.00 0.00 69 1010.5
20201027121638 70 294 3.0 12.0 0.00 0.00 0.00 68 1010.5
20201027120153 70 263 5.0 10.0 0.00 0.00 0.00 66 1010.5
20201027114700 71 285 4.0 13.0 0.00 0.00 0.00 60 1010.6
20201027113132 71 333 2.0 12.0 0.00 0.00 0.00 55 1010.7
20201027111555 74 314 6.0 16.0 0.00 0.00 0.00 44 1010.8
20201027110054 75 321 5.0 11.0 0.00 0.00 0.00 37 1010.9
20201027104613 75 207 6.0 12.0 0.00 0.00 0.00 16 1010.9
20201027103156 73 333 3.0 6.0 0.00 0.00 0.00 38 1010.9
20201027101548 74 211 2.0 9.0 0.00 0.00 0.00 36 1011.1
20201027100045 74 5 3.0 10.0 0.00 0.00 0.00 33 1011.2
20201027094709 76 55 2.0 9.0 0.00 0.00 0.00 19 1011.4
20201027093211 76 188 3.0 8.0 0.00 0.00 0.00 15 1011.5
20201027091602 76 52 5.0 16.0 0.00 0.00 0.00 14 1011.7
20201027090038 76 186 5.0 15.0 0.00 0.00 0.00 15 1012.0
20201027084552 75 167 6.0 29.0 0.00 0.00 0.00 17 1012.2
20201027083047 75 117 8.0 17.0 0.00 0.00 0.00 17 1012.3
20201027081626 74 138 12.0 26.0 0.00 0.00 0.00 17 1012.6
20201027080032 74 134 12.0 21.0 0.00 0.00 0.00 17 1012.5
20201027074537 74 128 9.0 18.0 0.00 0.00 0.00 18 1012.5
20201027073030 74 98 12.0 20.0 0.00 0.00 0.00 17 1012.6
20201027071526 74 166 7.0 17.0 0.00 0.00 0.00 18 1012.4
20201027070150 73 136 11.0 21.0 0.00 0.00 0.00 18 1012.3
20201027064728 73 141 9.0 20.0 0.00 0.00 0.00 18 1012.2
20201027063107 72 110 5.0 20.0 0.00 0.00 0.00 18 1012.3
20201027061642 72 148 7.0 25.0 0.00 0.00 0.00 18 1012.2
20201027060133 71 96 10.0 21.0 0.00 0.00 0.00 18 1012.2
20201027054552 71 95 8.0 21.0 0.00 0.00 0.00 18 1012.2
20201027053052 70 110 5.0 22.0 0.00 0.00 0.00 18 1012.3
20201027051656 69 146 4.0 16.0 0.00 0.00 0.00 17 1012.2
20201027050042 69 133 9.0 19.0 0.00 0.00 0.00 18 1012.1
20201027044639 68 198 9.0 22.0 0.00 0.00 0.00 18 1012.0
20201027043032 68 110 10.0 24.0 0.00 0.00 0.00 18 1011.9
20201027041547 68 109 9.0 20.0 0.00 0.00 0.00 18 1011.8
20201027040029 68 155 10.0 20.0 0.00 0.00 0.00 18 1011.8
20201027034521 68 167 11.0 20.0 0.00 0.00 0.00 19 1011.8
20201027033044 68 192 12.0 22.0 0.00 0.00 0.00 18 1011.7
20201027031540 68 209 9.0 23.0 0.00 0.00 0.00 19 1011.7
20201027030020 68 165 11.0 25.0 0.00 0.00 0.00 19 1011.8
20201027024519 68 135 6.0 15.0 0.00 0.00 0.00 21 1011.7
20201027023026 67 118 9.0 18.0 0.00 0.00 0.00 22 1011.8